HappyWetter - St.Margarethen im Burgenland
Wetterdaten: aktuell Montag, 18.01.2021 20:45
Datum Zeit Temp. A. Feuchte A. Luftdruck Regen Wind Richtung Richtung Sonnenschein ET Solar Taupunkt Windchill Windben Empfang
18.01.2021 20:45 -2,1 C 92 % 1022,3 hPa 0,0 l/m 2,6 km/h (1 Bft) S 184 0 min 0,000 mm 0 W/m -3,2 C -2,1 C 4,8 km/h (1 Bft) 100,00 %
18.01.2021 19:45 -2,4 C 91 % 1022,2 hPa 0,0 l/m 0,8 km/h (0 Bft) O-SO 123 0 min 0,000 mm 0 W/m -3,7 C -2,4 C 3,2 km/h (1 Bft) 100,00 %
18.01.2021 18:44 -1,9 C 91 % 1022,3 hPa 0,0 l/m 3,8 km/h (1 Bft) W-NW 292 0 min 0,000 mm 0 W/m -3,2 C -1,9 C 4,8 km/h (1 Bft) 100,00 %
18.01.2021 17:44 -1,7 C 90 % 1022,1 hPa 0,0 l/m 0,0 km/h (0 Bft) SW 228 0 min 0,000 mm 0 W/m -3,1 C -1,7 C 0,0 km/h (0 Bft) 100,00 %
18.01.2021 16:44 -1,6 C 89 % 1022,4 hPa 0,0 l/m 2,1 km/h (1 Bft) SW 234 0 min 0,000 mm 0 W/m -3,2 C -1,6 C 3,2 km/h (1 Bft) 100,00 %
18.01.2021 15:44 -1,2 C 87 % 1022,5 hPa 0,0 l/m 3,0 km/h (1 Bft) NW 321 0 min 0,001 mm 7 W/m -3,1 C -1,2 C 4,8 km/h (1 Bft) 100,00 %
18.01.2021 14:43 -0,9 C 86 % 1022,5 hPa 0,0 l/m 0,1 km/h (0 Bft) O-NO 74 0 min 0,025 mm 30 W/m -2,9 C -0,9 C 1,6 km/h (1 Bft) 100,00 %
18.01.2021 13:41 -0,9 C 84 % 1022,2 hPa 0,3 l/m 1,3 km/h (1 Bft) NO 53 5 min 0,051 mm 97 W/m -3,3 C -0,9 C 3,2 km/h (1 Bft) 100,00 %
18.01.2021 12:40 -0,1 C 81 % 1022,3 hPa 0,0 l/m 0,0 km/h (0 Bft) O 95 0 min 0,051 mm 114 W/m -3,0 C -0,1 C 0,0 km/h (0 Bft) 100,00 %
18.01.2021 11:40 -0,4 C 80 % 1022,7 hPa 0,0 l/m 0,1 km/h (0 Bft) SO 126 0 min 0,051 mm 111 W/m -3,4 C -0,4 C 1,6 km/h (1 Bft) 95,83 %
18.01.2021 10:40 -1,2 C 79 % 1022,7 hPa 0,0 l/m 3,9 km/h (1 Bft) O-SO 109 0 min 0,025 mm 132 W/m -4,4 C -1,2 C 4,8 km/h (1 Bft) 95,83 %
18.01.2021 09:40 -2,1 C 81 % 1022,6 hPa 0,0 l/m 3,1 km/h (1 Bft) SO 127 0 min 0,000 mm 60 W/m -4,9 C -2,1 C 6,4 km/h (2 Bft) 100,00 %
18.01.2021 08:39 -3,3 C 84 % 1022,6 hPa 0,0 l/m 0,0 km/h (0 Bft) N 355 0 min 0,000 mm 56 W/m -5,6 C -3,3 C 0,0 km/h (0 Bft) 100,00 %
18.01.2021 07:39 -3,5 C 83 % 1022,2 hPa 0,0 l/m 1,8 km/h (1 Bft) N 355 0 min 0,000 mm 0 W/m -6,0 C -3,5 C 3,2 km/h (1 Bft) 100,00 %
18.01.2021 06:39 -3,4 C 84 % 1022,2 hPa 0,0 l/m 0,0 km/h (0 Bft) SO 136 0 min 0,000 mm 0 W/m -5,7 C -3,4 C 0,0 km/h (0 Bft) 100,00 %
18.01.2021 05:39 -3,7 C 83 % 1022,2 hPa 0,0 l/m 0,0 km/h (0 Bft) S-SO 156 0 min 0,000 mm 0 W/m -6,2 C -3,7 C 0,0 km/h (0 Bft) 100,00 %
18.01.2021 04:37 -3,9 C 82 % 1022,0 hPa 0,0 l/m 3,2 km/h (1 Bft) O-SO 115 0 min 0,000 mm 0 W/m -6,5 C -3,9 C 3,2 km/h (1 Bft) 100,00 %
18.01.2021 03:36 -4,2 C 80 % 1022,4 hPa 0,0 l/m 4,4 km/h (1 Bft) O 94 0 min 0,000 mm 0 W/m -7,1 C -4,2 C 6,4 km/h (2 Bft) 100,00 %
18.01.2021 02:36 -4,2 C 84 % 1022,4 hPa 0,0 l/m 4,5 km/h (1 Bft) O 82 0 min 0,000 mm 0 W/m -6,5 C -4,2 C 4,8 km/h (1 Bft) 100,00 %
18.01.2021 01:35 -4,6 C 84 % 1022,6 hPa 0,0 l/m 2,4 km/h (1 Bft) O-SO 119 0 min 0,000 mm 0 W/m -6,9 C -4,6 C 3,2 km/h (1 Bft) 100,00 %
18.01.2021 00:35 -4,4 C 82 % 1022,6 hPa 0,0 l/m 0,6 km/h (0 Bft) S 190 0 min 0,000 mm 0 W/m -7,0 C -4,4 C 1,6 km/h (1 Bft) 95,83 %
17.01.2021 23:35 -3,6 C 82 % 1022,7 hPa 0,0 l/m 0,0 km/h (0 Bft) NW 324 0 min 0,000 mm 0 W/m -6,2 C -3,6 C 0,0 km/h (0 Bft) 100,00 %
17.01.2021 22:33 -3,1 C 87 % 1022,5 hPa 0,0 l/m 1,7 km/h (1 Bft) NO 47 0 min 0,000 mm 0 W/m -4,9 C -3,1 C 3,2 km/h (1 Bft) 100,00 %
17.01.2021 21:33 -2,7 C 87 % 1021,9 hPa 0,0 l/m 4,1 km/h (1 Bft) NO 53 0 min 0,000 mm 0 W/m -4,6 C -2,7 C 4,8 km/h (1 Bft) 100,00 %
17.01.2021 21:00 -2,3 C 87 % 1021,6 hPa 0,0 l/m 4,8 km/h (1 Bft) N-NO 26 0 min 0,000 mm 0 W/m -4,2 C -2,3 C 6,4 km/h (2 Bft) 96,30 %
_ Min-Zeit 01:23 10:23 21:09 - 20:40 - - - - - 01:02 01:14 20:40 00:50
Minimum _ -4,7 C 77 % 1021,6 hPa - 0,0 km/h (0 Bft) - - - - - -7,3 C -6,9 C 0,0 km/h (0 Bft) 83,33 %
_ Max-Zeit 12:45 20:45 11:46 12:49 01:14 - - 12:54 13:00 12:51 12:45 12:45 03:03 20:45
Maximum _ 0,0 C 92 % 1022,8 hPa 0,3 l/m 8,3 km/h
S-SW (2 Bft)
- - 1 min 0,051 mm 167 W/m -2,7 C 0,0 C 14,5 km/h
NO (3 Bft)
100,00 %
Durchschnitt _ -2,5 C 85 % 1022,3 hPa #0,3 l/m 2,1 km/h (1 Bft) SO - #5 min. #0,229 mm 74 W/m -4,8 C -2,5 C 3,1 km/h (1 Bft) 98,31 %